Time;durP1;ratioP1;P1;durP2;ratioP2;P2;SDS_P1;SDS_P2;PMS_P1;PMS_P2;Temp;Humidity;BMP_temperature;BMP_pressure;BME280_temperature;BME280_humidity;BME280_pressure;Samples;Min_cycle;Max_cycle;Signal;HPM_P1;HPM_P2
2022/08/10 00:00:32;;;;;;;419.70;58.88;;;;;;;;;;4216022;28;20040;-63
2022/08/10 00:02:35;;;;;;;414.33;57.25;;;;;;;;;;4215987;28;20032;-63
2022/08/10 00:04:39;;;;;;;398.73;58.33;;;;;;;;;;4215711;28;20044;-63
2022/08/10 00:06:40;;;;;;;383.30;52.60;;;;;;;;;;4215481;28;20081;-63
2022/08/10 00:08:41;;;;;;;392.77;54.03;;;;;;;;;;4215836;28;20497;-63
2022/08/10 00:10:42;;;;;;;347.25;48.90;;;;;;;;;;4215501;28;20036;-63
2022/08/10 00:12:43;;;;;;;293.20;45.63;;;;;;;;;;4215887;28;20405;-63
2022/08/10 00:14:44;;;;;;;318.08;42.72;;;;;;;;;;4215842;28;20541;-63
2022/08/10 00:16:48;;;;;;;278.52;43.40;;;;;;;;;;4215678;28;20101;-63
2022/08/10 00:18:49;;;;;;;297.77;43.93;;;;;;;;;;4215740;28;20040;-63
2022/08/10 00:20:50;;;;;;;314.00;42.08;;;;;;;;;;4215139;28;20115;-63
2022/08/10 00:22:51;;;;;;;336.40;43.63;;;;;;;;;;4216006;28;20379;-63
2022/08/10 00:24:56;;;;;;;318.40;46.80;;;;;;;;;;4215216;28;20067;-63
2022/08/10 00:26:57;;;;;;;332.13;45.53;;;;;;;;;;4215441;28;20101;-63
2022/08/10 00:28:57;;;;;;;353.55;45.65;;;;;;;;;;4215873;28;20040;-63
2022/08/10 00:31:01;;;;;;;347.25;44.10;;;;;;;;;;4215291;28;20097;-63
2022/08/10 00:33:05;;;;;;;336.88;45.22;;;;;;;;;;4215619;28;20044;-63
2022/08/10 00:35:07;;;;;;;328.17;44.90;;;;;;;;;;4198407;28;20113;-62
2022/08/10 00:37:07;;;;;;;349.95;46.30;;;;;;;;;;4198658;28;20032;-63
2022/08/10 00:39:11;;;;;;;342.48;45.85;;;;;;;;;;4198894;28;20028;-63
2022/08/10 00:41:12;;;;;;;335.05;43.78;;;;;;;;;;4197916;28;20037;-63
2022/08/10 00:43:14;;;;;;;301.10;42.63;;;;;;;;;;4198668;28;20120;-63
2022/08/10 00:45:18;;;;;;;315.25;44.58;;;;;;;;;;4198556;28;20044;-62
2022/08/10 00:47:19;;;;;;;352.33;45.80;;;;;;;;;;4199065;28;20021;-63
2022/08/10 00:49:20;;;;;;;327.52;43.45;;;;;;;;;;4198478;28;20041;-63
2022/08/10 00:51:21;;;;;;;291.67;42.88;;;;;;;;;;4198128;28;20115;-63
2022/08/10 00:53:24;;;;;;;317.67;43.33;;;;;;;;;;4198859;28;20037;-63
2022/08/10 00:55:28;;;;;;;298.98;40.28;;;;;;;;;;4198409;28;20032;-63
2022/08/10 00:57:29;;;;;;;246.68;38.13;;;;;;;;;;4197659;28;20036;-63
2022/08/10 00:59:31;;;;;;;282.25;41.95;;;;;;;;;;4198081;28;20066;-64
2022/08/10 01:01:32;;;;;;;263.35;39.28;;;;;;;;;;4198717;28;20041;-63
2022/08/10 01:03:33;;;;;;;262.35;42.42;;;;;;;;;;4199029;28;20360;-64
2022/08/10 01:05:37;;;;;;;250.85;38.78;;;;;;;;;;4198653;28;20044;-64
2022/08/10 01:07:44;;;;;;;254.98;39.13;;;;;;;;;;4198122;28;20044;-64
2022/08/10 01:09:50;;;;;;;271.33;40.45;;;;;;;;;;4198353;28;20466;-64
2022/08/10 01:12:09;;;;;;;248.43;37.25;;;;;;;;;;4198246;28;20032;-64
2022/08/10 01:14:20;;;;;;;234.48;37.83;;;;;;;;;;4198083;28;20545;-63
2022/08/10 01:16:21;;;;;;;265.42;38.90;;;;;;;;;;4198199;28;20036;-64
2022/08/10 01:18:40;;;;;;;788.63;99.63;;;;;;;;;;4198315;28;20087;-64
2022/08/10 01:21:00;;;;;;;336.30;43.90;;;;;;;;;;4197962;28;20098;-64
2022/08/10 01:23:16;;;;;;;558.30;74.25;;;;;;;;;;4198050;28;20036;-64
2022/08/10 01:25:42;;;;;;;342.30;46.00;;;;;;;;;;4198329;28;20070;-64
2022/08/10 01:28:15;;;;;;;340.02;45.65;;;;;;;;;;4197978;28;20468;-63
2022/08/10 01:30:19;;;;;;;328.60;43.33;;;;;;;;;;4163270;28;20078;-64
2022/08/10 01:32:29;;;;;;;337.38;46.33;;;;;;;;;;4197956;28;20086;-64
2022/08/10 01:34:38;;;;;;;323.92;43.90;;;;;;;;;;4198466;28;20056;-64
2022/08/10 01:36:47;;;;;;;309.42;41.72;;;;;;;;;;4198192;28;20105;-64
2022/08/10 01:38:50;;;;;;;283.98;41.72;;;;;;;;;;4197990;28;20074;-64
2022/08/10 01:40:53;;;;;;;254.43;39.65;;;;;;;;;;4197979;28;20032;-64
2022/08/10 01:42:56;;;;;;;262.13;39.83;;;;;;;;;;4197707;28;20032;-64
2022/08/10 01:44:59;;;;;;;242.15;39.08;;;;;;;;;;4198099;28;20106;-62
2022/08/10 01:49:23;;;;;;;233.95;39.70;;;;;;;;;;4199920;28;20089;-63
2022/08/10 01:51:29;;;;;;;250.57;37.38;;;;;;;;;;4198008;28;20086;-63
2022/08/10 01:53:36;;;;;;;234.25;38.10;;;;;;;;;;4197709;28;20058;-63
2022/08/10 01:55:37;;;;;;;219.88;37.63;;;;;;;;;;4197610;28;20476;-63
2022/08/10 01:57:40;;;;;;;230.63;37.42;;;;;;;;;;4198079;28;20811;-63
2022/08/10 01:59:42;;;;;;;211.40;35.65;;;;;;;;;;4197638;28;20036;-63
2022/08/10 02:01:48;;;;;;;200.30;34.20;;;;;;;;;;4197654;28;20029;-63
2022/08/10 02:03:52;;;;;;;208.48;35.45;;;;;;;;;;4196900;28;20036;-63
2022/08/10 02:05:54;;;;;;;227.93;33.60;;;;;;;;;;4197541;28;20028;-62
2022/08/10 02:07:56;;;;;;;213.57;33.88;;;;;;;;;;4197378;28;20029;-63
2022/08/10 02:09:58;;;;;;;179.15;32.97;;;;;;;;;;4196758;28;20062;-63
2022/08/10 02:12:04;;;;;;;198.50;33.42;;;;;;;;;;4197720;28;20422;-63
2022/08/10 02:14:08;;;;;;;183.00;33.92;;;;;;;;;;4197307;28;20032;-63
2022/08/10 02:16:10;;;;;;;187.13;32.70;;;;;;;;;;4197296;28;20093;-63
2022/08/10 02:18:11;;;;;;;163.88;30.55;;;;;;;;;;4197656;28;20016;-63
2022/08/10 02:20:20;;;;;;;180.63;32.28;;;;;;;;;;4197541;28;20036;-63
2022/08/10 02:22:22;;;;;;;170.35;31.10;;;;;;;;;;4197360;28;20032;-63
2022/08/10 02:24:24;;;;;;;174.38;30.83;;;;;;;;;;4191741;28;20093;-63
2022/08/10 02:26:25;;;;;;;163.43;29.70;;;;;;;;;;4197102;28;20028;-63
2022/08/10 02:28:27;;;;;;;155.60;31.48;;;;;;;;;;4196856;28;20036;-63
2022/08/10 02:30:29;;;;;;;157.63;27.27;;;;;;;;;;4196980;28;20094;-63
2022/08/10 02:32:33;;;;;;;148.82;30.02;;;;;;;;;;4197584;28;20089;-63
2022/08/10 02:34:39;;;;;;;145.38;30.05;;;;;;;;;;4198231;28;20044;-63
2022/08/10 02:36:43;;;;;;;138.15;27.90;;;;;;;;;;4213518;28;20051;-63
2022/08/10 02:38:44;;;;;;;;;;;;;;;;;;4213964;28;20048;-63
2022/08/10 02:40:46;;;;;;;132.63;26.02;;;;;;;;;;4213587;28;19930;-63
2022/08/10 02:43:07;;;;;;;127.95;27.58;;;;;;;;;;4213834;28;20028;-62
2022/08/10 02:45:20;;;;;;;116.43;25.48;;;;;;;;;;4213829;28;20082;-64
2022/08/10 02:47:39;;;;;;;123.95;26.60;;;;;;;;;;4213698;28;20040;-61
2022/08/10 02:49:47;;;;;;;116.93;24.95;;;;;;;;;;4213782;28;20101;-62
2022/08/10 02:52:00;;;;;;;129.77;26.65;;;;;;;;;;4213712;28;20040;-63
2022/08/10 02:54:04;;;;;;;134.98;28.52;;;;;;;;;;4213927;28;20032;-63
2022/08/10 02:56:08;;;;;;;118.05;24.13;;;;;;;;;;4212916;28;20031;-63
2022/08/10 02:58:12;;;;;;;97.13;23.95;;;;;;;;;;4213453;28;20057;-62
2022/08/10 03:00:14;;;;;;;116.55;25.38;;;;;;;;;;4213134;28;20429;-62
2022/08/10 03:02:40;;;;;;;103.25;24.00;;;;;;;;;;4212990;28;20028;-62
2022/08/10 03:04:45;;;;;;;106.10;23.55;;;;;;;;;;4210009;28;20052;-62
2022/08/10 03:06:54;;;;;;;111.18;24.05;;;;;;;;;;4213403;28;20028;-63
2022/08/10 03:08:56;;;;;;;96.22;22.60;;;;;;;;;;4213195;28;20067;-62
2022/08/10 03:10:59;;;;;;;107.18;23.08;;;;;;;;;;4212997;28;20122;-63
2022/08/10 03:13:01;;;;;;;110.97;23.20;;;;;;;;;;4213680;28;20048;-62
2022/08/10 03:15:03;;;;;;;95.90;23.02;;;;;;;;;;4213129;28;20032;-62
2022/08/10 03:17:05;;;;;;;86.63;21.75;;;;;;;;;;4213241;28;20446;-62
2022/08/10 03:19:06;;;;;;;112.47;22.65;;;;;;;;;;4213168;28;20105;-62
2022/08/10 03:21:08;;;;;;;96.78;20.92;;;;;;;;;;4214910;28;20032;-62
2022/08/10 03:23:11;;;;;;;85.78;21.38;;;;;;;;;;4216111;28;20075;-62
2022/08/10 03:25:16;;;;;;;91.90;21.42;;;;;;;;;;4216303;28;20069;-62
2022/08/10 03:27:17;;;;;;;93.50;22.05;;;;;;;;;;4216673;28;20073;-62
2022/08/10 03:29:19;;;;;;;74.88;20.27;;;;;;;;;;4216531;28;20028;-62
2022/08/10 03:31:20;;;;;;;73.90;19.35;;;;;;;;;;4215989;28;20040;-62
2022/08/10 03:33:23;;;;;;;72.50;19.67;;;;;;;;;;4216244;28;20108;-62
2022/08/10 03:35:24;;;;;;;79.28;20.30;;;;;;;;;;4216171;28;20044;-62
2022/08/10 03:37:26;;;;;;;71.22;20.23;;;;;;;;;;4216193;28;20036;-63
2022/08/10 03:39:27;;;;;;;72.07;18.55;;;;;;;;;;4215803;28;20040;-63
2022/08/10 03:41:40;;;;;;;66.07;19.85;;;;;;;;;;4216193;28;20105;-62
2022/08/10 03:43:44;;;;;;;69.80;17.80;;;;;;;;;;4216065;28;20074;-62
2022/08/10 03:45:50;;;;;;;86.47;20.40;;;;;;;;;;4215952;28;20437;-62
2022/08/10 03:47:53;;;;;;;82.85;19.33;;;;;;;;;;4215850;28;20256;-62
2022/08/10 03:49:58;;;;;;;74.65;18.70;;;;;;;;;;4215702;28;20097;-62
2022/08/10 03:52:00;;;;;;;69.43;19.63;;;;;;;;;;4215965;28;20093;-62
2022/08/10 03:54:01;;;;;;;61.85;17.70;;;;;;;;;;4215988;28;20039;-62
2022/08/10 03:56:03;;;;;;;64.07;19.13;;;;;;;;;;4215922;28;20036;-62
2022/08/10 03:58:07;;;;;;;72.72;18.38;;;;;;;;;;4216371;28;20057;-63
2022/08/10 04:00:08;;;;;;;74.43;19.43;;;;;;;;;;4215694;28;20028;-62
2022/08/10 04:02:13;;;;;;;72.18;18.58;;;;;;;;;;4204854;28;20089;-61
2022/08/10 04:04:14;;;;;;;48.25;14.85;;;;;;;;;;4198939;28;20037;-63
2022/08/10 04:06:15;;;;;;;62.95;17.77;;;;;;;;;;4198881;28;20468;-61
2022/08/10 04:08:16;;;;;;;62.75;18.85;;;;;;;;;;4199012;28;20098;-61
2022/08/10 04:10:17;;;;;;;53.45;16.35;;;;;;;;;;4198713;28;20025;-63
2022/08/10 04:12:21;;;;;;;55.47;18.50;;;;;;;;;;4198052;28;20488;-61
2022/08/10 04:14:22;;;;;;;50.85;17.02;;;;;;;;;;4199236;28;20089;-61
2022/08/10 04:16:25;;;;;;;59.13;17.15;;;;;;;;;;4200194;28;20124;-61
2022/08/10 04:18:26;;;;;;;54.42;16.70;;;;;;;;;;4215239;28;20097;-64
2022/08/10 04:20:53;;;;;;;62.97;17.63;;;;;;;;;;4215498;28;20422;-62
2022/08/10 04:22:58;;;;;;;63.08;17.73;;;;;;;;;;4208241;28;20028;-61
2022/08/10 04:25:01;;;;;;;58.17;15.98;;;;;;;;;;4215377;28;20552;-64
2022/08/10 04:27:02;;;;;;;53.30;16.70;;;;;;;;;;4211071;28;20086;-63
2022/08/10 04:29:03;;;;;;;64.72;18.15;;;;;;;;;;4198746;28;20090;-63
2022/08/10 04:31:05;;;;;;;59.67;17.48;;;;;;;;;;4198130;28;20037;-63
2022/08/10 04:33:12;;;;;;;50.05;16.20;;;;;;;;;;4207425;28;20145;-63
2022/08/10 04:35:15;;;;;;;52.60;16.10;;;;;;;;;;4215141;28;20048;-63
2022/08/10 04:37:18;;;;;;;50.88;14.60;;;;;;;;;;4215276;28;20079;-63
2022/08/10 04:39:22;;;;;;;50.38;15.15;;;;;;;;;;4215185;28;20040;-63
2022/08/10 04:41:23;;;;;;;53.33;15.93;;;;;;;;;;4215269;28;20028;-63
2022/08/10 04:43:24;;;;;;;47.05;16.92;;;;;;;;;;4215514;28;20066;-61
2022/08/10 04:45:24;;;;;;;50.03;16.30;;;;;;;;;;4215347;28;20135;-63
2022/08/10 04:47:25;;;;;;;48.03;15.43;;;;;;;;;;4215452;28;20034;-63
2022/08/10 04:49:26;;;;;;;54.50;15.93;;;;;;;;;;4214973;28;20430;-63
2022/08/10 04:51:27;;;;;;;46.40;15.43;;;;;;;;;;4215680;28;20089;-63
2022/08/10 04:53:28;;;;;;;56.08;14.75;;;;;;;;;;4215862;28;20095;-63
2022/08/10 04:55:31;;;;;;;42.85;14.95;;;;;;;;;;4215296;28;20440;-64
2022/08/10 04:57:32;;;;;;;44.30;14.88;;;;;;;;;;4215445;28;20019;-64
2022/08/10 04:59:33;;;;;;;38.22;14.13;;;;;;;;;;4214911;28;20020;-63
2022/08/10 05:01:35;;;;;;;45.22;14.35;;;;;;;;;;4215535;28;20040;-63
2022/08/10 05:03:39;;;;;;;40.92;14.98;;;;;;;;;;4215147;28;20081;-63
2022/08/10 05:05:39;;;;;;;54.80;15.32;;;;;;;;;;4215182;28;20097;-62
2022/08/10 05:07:40;;;;;;;42.50;14.90;;;;;;;;;;4214866;28;20105;-63
2022/08/10 05:09:42;;;;;;;51.65;15.38;;;;;;;;;;4214506;28;20036;-61
2022/08/10 05:11:45;;;;;;;41.35;13.98;;;;;;;;;;4214778;28;20036;-61
2022/08/10 05:13:46;;;;;;;43.72;14.23;;;;;;;;;;4214824;28;20036;-62
2022/08/10 05:15:49;;;;;;;38.53;13.85;;;;;;;;;;4215187;28;20099;-61
2022/08/10 05:17:50;;;;;;;38.55;13.63;;;;;;;;;;4214514;28;20043;-61
2022/08/10 05:19:51;;;;;;;38.22;13.85;;;;;;;;;;4214595;28;20364;-63
2022/08/10 05:21:52;;;;;;;30.20;13.40;;;;;;;;;;4214917;28;20529;-61
2022/08/10 05:23:53;;;;;;;43.85;15.23;;;;;;;;;;4214894;28;20043;-61
2022/08/10 05:25:54;;;;;;;34.97;12.73;;;;;;;;;;4213909;28;20040;-63
2022/08/10 05:27:55;;;;;;;40.05;13.95;;;;;;;;;;4214775;28;20438;-62
2022/08/10 05:29:56;;;;;;;40.67;14.38;;;;;;;;;;4214142;28;20028;-63
2022/08/10 05:31:57;;;;;;;38.88;13.30;;;;;;;;;;4215002;28;20407;-61
2022/08/10 05:34:00;;;;;;;39.03;13.32;;;;;;;;;;4213727;28;20040;-64
2022/08/10 05:36:05;;;;;;;36.40;14.13;;;;;;;;;;4214550;28;20036;-63
2022/08/10 05:38:06;;;;;;;37.15;13.30;;;;;;;;;;4214658;28;20273;-64
2022/08/10 05:40:08;;;;;;;36.28;12.85;;;;;;;;;;4214127;28;20028;-63
2022/08/10 05:42:11;;;;;;;36.08;14.07;;;;;;;;;;4214483;28;20040;-64
2022/08/10 05:44:12;;;;;;;38.92;13.40;;;;;;;;;;4214256;28;20456;-64
2022/08/10 05:46:16;;;;;;;43.22;14.25;;;;;;;;;;4214357;28;20051;-63
2022/08/10 05:48:16;;;;;;;32.65;14.00;;;;;;;;;;4214504;28;20032;-64
2022/08/10 05:50:22;;;;;;;35.55;12.88;;;;;;;;;;4214464;28;20390;-63
2022/08/10 05:52:23;;;;;;;44.58;13.85;;;;;;;;;;4214357;28;20032;-63
2022/08/10 05:54:25;;;;;;;36.50;13.20;;;;;;;;;;4214650;28;20040;-63
2022/08/10 05:56:43;;;;;;;35.80;13.15;;;;;;;;;;4214888;28;20028;-63
2022/08/10 05:58:44;;;;;;;28.25;11.70;;;;;;;;;;4214724;28;20533;-63
2022/08/10 06:00:47;;;;;;;32.90;13.75;;;;;;;;;;4214338;28;20070;-63
2022/08/10 06:02:52;;;;;;;38.38;12.55;;;;;;;;;;4214211;28;20089;-63
2022/08/10 06:04:54;;;;;;;31.92;12.45;;;;;;;;;;4214132;28;20032;-63
2022/08/10 06:06:57;;;;;;;38.72;12.88;;;;;;;;;;4213706;28;20032;-63
2022/08/10 06:08:58;;;;;;;33.42;11.63;;;;;;;;;;4214133;28;20028;-63
2022/08/10 06:11:01;;;;;;;37.25;13.05;;;;;;;;;;4213811;28;20043;-63
2022/08/10 06:15:23;;;;;;;29.20;12.23;;;;;;;;;;4214755;28;20024;-62
2022/08/10 06:17:25;;;;;;;27.38;12.07;;;;;;;;;;4214001;28;20024;-63
2022/08/10 06:19:26;;;;;;;33.05;13.10;;;;;;;;;;4213739;28;20069;-63
2022/08/10 06:21:27;;;;;;;29.30;12.15;;;;;;;;;;4214669;28;20020;-63
2022/08/10 06:23:29;;;;;;;35.15;13.23;;;;;;;;;;4214043;28;20040;-63
2022/08/10 06:25:30;;;;;;;25.70;11.48;;;;;;;;;;4214202;28;20093;-62
2022/08/10 06:27:32;;;;;;;34.10;12.77;;;;;;;;;;4213920;28;20032;-63
2022/08/10 06:29:35;;;;;;;33.33;12.32;;;;;;;;;;4213629;28;20085;-63
2022/08/10 06:31:37;;;;;;;35.55;13.38;;;;;;;;;;4213904;28;20463;-63
2022/08/10 06:33:43;;;;;;;31.15;12.23;;;;;;;;;;4213862;28;20040;-63
2022/08/10 06:35:45;;;;;;;26.63;11.38;;;;;;;;;;4213548;28;20120;-63
2022/08/10 06:37:47;;;;;;;25.00;10.90;;;;;;;;;;4213999;28;20032;-63
2022/08/10 06:39:48;;;;;;;30.63;11.65;;;;;;;;;;4213195;28;20028;-63
2022/08/10 06:41:51;;;;;;;31.25;11.57;;;;;;;;;;4214360;28;20368;-63
2022/08/10 06:43:57;;;;;;;29.35;10.75;;;;;;;;;;4214367;28;20073;-63
2022/08/10 06:46:03;;;;;;;29.65;11.00;;;;;;;;;;4214112;28;20073;-63
2022/08/10 06:48:19;;;;;;;25.55;11.13;;;;;;;;;;4213830;28;20065;-63
2022/08/10 06:50:25;;;;;;;35.25;11.30;;;;;;;;;;4214119;28;20012;-63
2022/08/10 06:52:29;;;;;;;26.38;11.65;;;;;;;;;;4213837;28;20101;-63
2022/08/10 06:54:31;;;;;;;24.50;11.43;;;;;;;;;;4213799;28;20020;-63
2022/08/10 06:56:34;;;;;;;32.75;12.02;;;;;;;;;;4211665;28;20085;-63
2022/08/10 06:58:37;;;;;;;26.40;11.32;;;;;;;;;;4217148;28;20029;-63
2022/08/10 07:00:40;;;;;;;27.75;12.02;;;;;;;;;;4216371;28;20028;-63
2022/08/10 07:02:41;;;;;;;26.02;10.93;;;;;;;;;;4217105;28;20102;-63
2022/08/10 07:04:47;;;;;;;25.45;10.73;;;;;;;;;;4216936;28;20514;-63
2022/08/10 07:06:49;;;;;;;26.35;11.10;;;;;;;;;;4216977;28;20066;-62
2022/08/10 07:08:51;;;;;;;29.52;10.80;;;;;;;;;;4216911;28;20032;-63
2022/08/10 07:10:53;;;;;;;25.52;10.60;;;;;;;;;;4216626;28;20036;-63
2022/08/10 07:12:55;;;;;;;28.45;10.60;;;;;;;;;;4217384;28;20066;-63
2022/08/10 07:14:57;;;;;;;27.60;10.25;;;;;;;;;;4216971;28;20093;-63
2022/08/10 07:16:58;;;;;;;27.67;11.18;;;;;;;;;;4216790;28;20024;-63
2022/08/10 07:19:03;;;;;;;19.48;10.32;;;;;;;;;;4216874;28;20040;-63
2022/08/10 07:21:07;;;;;;;25.45;10.10;;;;;;;;;;4216495;28;20028;-63
2022/08/10 07:23:11;;;;;;;22.17;10.27;;;;;;;;;;4216871;28;20419;-63
2022/08/10 07:25:12;;;;;;;;;;;;;;;;;;4217046;28;20086;-63
2022/08/10 07:27:13;;;;;;;22.70;10.60;;;;;;;;;;4216728;28;20340;-63
2022/08/10 07:29:15;;;;;;;22.33;10.20;;;;;;;;;;4217181;28;20024;-63
2022/08/10 07:31:20;;;;;;;21.10;9.77;;;;;;;;;;4216703;28;20024;-63
2022/08/10 07:33:24;;;;;;;21.00;8.95;;;;;;;;;;4216581;28;20036;-62
2022/08/10 07:35:26;;;;;;;22.88;10.30;;;;;;;;;;4215952;28;20044;-63
2022/08/10 07:37:28;;;;;;;27.17;11.05;;;;;;;;;;4216384;28;20020;-62
2022/08/10 07:39:33;;;;;;;26.00;10.77;;;;;;;;;;4216244;28;20044;-62
2022/08/10 07:41:38;;;;;;;22.40;10.52;;;;;;;;;;4216395;28;20028;-62
2022/08/10 07:43:39;;;;;;;24.02;10.65;;;;;;;;;;4216457;28;20429;-62
2022/08/10 07:45:40;;;;;;;22.17;10.07;;;;;;;;;;4216221;28;20072;-62
2022/08/10 07:48:00;;;;;;;24.88;10.27;;;;;;;;;;4216224;28;20032;-62
2022/08/10 07:50:02;;;;;;;21.35;10.57;;;;;;;;;;4216314;28;20090;-62
2022/08/10 07:52:05;;;;;;;22.65;10.02;;;;;;;;;;4216746;28;20530;-62
2022/08/10 07:54:07;;;;;;;23.58;10.48;;;;;;;;;;4216227;28;20032;-62
2022/08/10 07:56:09;;;;;;;23.08;9.82;;;;;;;;;;4216201;28;20044;-62
2022/08/10 07:58:19;;;;;;;19.55;10.02;;;;;;;;;;4216213;28;20081;-62
2022/08/10 08:00:21;;;;;;;25.40;10.32;;;;;;;;;;4215828;28;20040;-62
2022/08/10 08:02:25;;;;;;;17.23;9.02;;;;;;;;;;4215545;28;20032;-62
2022/08/10 08:04:29;;;;;;;19.92;10.10;;;;;;;;;;4215850;28;20058;-62
2022/08/10 08:06:32;;;;;;;20.27;9.02;;;;;;;;;;4215783;28;20048;-62
2022/08/10 08:08:34;;;;;;;19.85;10.32;;;;;;;;;;4215516;28;20429;-62
2022/08/10 08:10:36;;;;;;;18.98;8.95;;;;;;;;;;4215646;28;20044;-62
2022/08/10 08:12:37;;;;;;;23.10;9.30;;;;;;;;;;4216007;28;20036;-62
2022/08/10 08:14:42;;;;;;;20.42;9.48;;;;;;;;;;4215987;28;20105;-62
2022/08/10 08:16:48;;;;;;;17.70;9.65;;;;;;;;;;4215901;28;20044;-61
2022/08/10 08:18:51;;;;;;;20.60;9.55;;;;;;;;;;4215834;28;20032;-61
2022/08/10 08:20:53;;;;;;;22.02;10.13;;;;;;;;;;4215415;28;20368;-62
2022/08/10 08:22:55;;;;;;;20.67;9.25;;;;;;;;;;4215897;28;20024;-61
2022/08/10 08:24:56;;;;;;;23.05;9.27;;;;;;;;;;4214007;28;20082;-61
2022/08/10 08:26:58;;;;;;;21.58;9.85;;;;;;;;;;4215705;28;20040;-61
2022/08/10 08:28:59;;;;;;;22.58;9.27;;;;;;;;;;4215715;28;20503;-63
2022/08/10 08:31:05;;;;;;;17.17;9.55;;;;;;;;;;4215385;28;20032;-61
2022/08/10 08:33:08;;;;;;;13.57;8.20;;;;;;;;;;4215632;28;20036;-61
2022/08/10 08:35:10;;;;;;;15.80;8.82;;;;;;;;;;4215428;28;20099;-61
2022/08/10 08:37:14;;;;;;;18.73;8.80;;;;;;;;;;4215205;28;20036;-61
2022/08/10 08:39:15;;;;;;;17.70;9.13;;;;;;;;;;4215458;28;20028;-61
2022/08/10 08:41:21;;;;;;;15.80;8.40;;;;;;;;;;4215160;28;20163;-61
2022/08/10 08:43:31;;;;;;;17.23;8.75;;;;;;;;;;4215458;28;20101;-61
2022/08/10 08:45:50;;;;;;;16.15;8.60;;;;;;;;;;4215425;28;20036;-61
2022/08/10 08:48:14;;;;;;;16.85;8.32;;;;;;;;;;4215377;28;20093;-61
2022/08/10 08:50:33;;;;;;;20.42;9.15;;;;;;;;;;4176959;28;20027;-61
2022/08/10 08:52:34;;;;;;;17.55;8.45;;;;;;;;;;4197184;28;20063;-61
2022/08/10 08:55:00;;;;;;;15.25;8.88;;;;;;;;;;4215242;28;20504;-62
2022/08/10 08:57:20;;;;;;;16.10;7.90;;;;;;;;;;4205709;28;20089;-61
2022/08/10 08:59:32;;;;;;;16.77;9.38;;;;;;;;;;4215929;28;20048;-61
2022/08/10 09:01:49;;;;;;;19.80;8.57;;;;;;;;;;4215643;28;20016;-61
2022/08/10 09:04:02;;;;;;;17.73;8.40;;;;;;;;;;4215193;28;20031;-61
2022/08/10 09:06:06;;;;;;;16.20;8.10;;;;;;;;;;4214938;28;20117;-61
2022/08/10 09:08:07;;;;;;;15.40;7.50;;;;;;;;;;4215192;28;20028;-61
2022/08/10 09:10:20;;;;;;;17.13;8.38;;;;;;;;;;4214773;28;20028;-61
2022/08/10 09:12:30;;;;;;;17.48;8.32;;;;;;;;;;4214757;28;20039;-62
2022/08/10 09:14:37;;;;;;;14.20;8.60;;;;;;;;;;4214663;28;20036;-62
2022/08/10 09:16:50;;;;;;;18.13;8.70;;;;;;;;;;4214605;28;20032;-61
2022/08/10 09:18:55;;;;;;;18.40;8.30;;;;;;;;;;4214002;28;20097;-61
2022/08/10 09:21:25;;;;;;;15.48;7.60;;;;;;;;;;4213813;28;20029;-62
2022/08/10 09:23:51;;;;;;;17.50;7.95;;;;;;;;;;4196902;28;20031;-62
2022/08/10 09:25:54;;;;;;;15.25;9.02;;;;;;;;;;4214704;28;20032;-61
2022/08/10 09:27:58;;;;;;;13.85;7.70;;;;;;;;;;4214305;28;20459;-61
2022/08/10 09:30:02;;;;;;;13.48;7.25;;;;;;;;;;4214121;28;20483;-61
2022/08/10 09:32:08;;;;;;;19.65;8.57;;;;;;;;;;4214129;28;20062;-63
2022/08/10 09:34:27;;;;;;;17.52;8.70;;;;;;;;;;4214142;28;20032;-63
2022/08/10 09:36:52;;;;;;;15.20;7.60;;;;;;;;;;4214107;28;20093;-63
2022/08/10 09:39:16;;;;;;;13.05;7.45;;;;;;;;;;4214382;28;20109;-64
2022/08/10 09:41:40;;;;;;;14.68;8.43;;;;;;;;;;4203281;28;20487;-64
2022/08/10 09:43:49;;;;;;;19.75;8.55;;;;;;;;;;4214350;28;20032;-64
2022/08/10 09:46:08;;;;;;;14.52;7.25;;;;;;;;;;4213968;28;20044;-63
2022/08/10 09:48:19;;;;;;;13.02;7.75;;;;;;;;;;4214158;28;20433;-64
2022/08/10 09:50:28;;;;;;;14.32;8.10;;;;;;;;;;4213950;28;20085;-63
2022/08/10 09:52:29;;;;;;;14.02;7.32;;;;;;;;;;4213035;28;20100;-64
2022/08/10 09:54:50;;;;;;;16.45;8.40;;;;;;;;;;4213842;28;20101;-63
2022/08/10 09:57:10;;;;;;;18.08;7.38;;;;;;;;;;4213678;28;20101;-63
2022/08/10 09:59:14;;;;;;;12.13;7.57;;;;;;;;;;4213840;28;20044;-64
2022/08/10 10:01:22;;;;;;;16.83;7.55;;;;;;;;;;4213847;28;20032;-63
2022/08/10 10:03:25;;;;;;;14.40;7.60;;;;;;;;;;4214025;28;20073;-64
2022/08/10 10:05:26;;;;;;;16.75;8.50;;;;;;;;;;4213961;28;20085;-64
2022/08/10 10:07:28;;;;;;;13.52;7.03;;;;;;;;;;4213913;28;20383;-63
2022/08/10 10:09:54;;;;;;;15.63;7.97;;;;;;;;;;4213813;28;20036;-64
2022/08/10 10:12:05;;;;;;;11.20;6.78;;;;;;;;;;4214179;28;20078;-65
2022/08/10 10:14:15;;;;;;;13.07;7.60;;;;;;;;;;4211610;28;20096;-63
2022/08/10 10:16:32;;;;;;;14.98;7.05;;;;;;;;;;4213914;28;20475;-63
2022/08/10 10:19:05;;;;;;;14.27;7.45;;;;;;;;;;4213871;28;20108;-64
2022/08/10 10:21:08;;;;;;;13.70;6.90;;;;;;;;;;4168702;28;20089;-64
2022/08/10 10:23:09;;;;;;;12.23;7.65;;;;;;;;;;4214205;28;20032;-63
2022/08/10 10:25:30;;;;;;;16.98;8.07;;;;;;;;;;4213612;28;20101;-63
2022/08/10 10:27:35;;;;;;;10.75;7.10;;;;;;;;;;4213915;28;20040;-63
2022/08/10 10:29:48;;;;;;;12.45;7.25;;;;;;;;;;4213781;28;20036;-64
2022/08/10 10:31:49;;;;;;;12.05;6.68;;;;;;;;;;4213626;28;20085;-63
2022/08/10 10:34:05;;;;;;;13.85;7.75;;;;;;;;;;4213607;28;20406;-64
2022/08/10 10:36:08;;;;;;;13.35;7.22;;;;;;;;;;4213718;28;20044;-63
2022/08/10 10:38:12;;;;;;;12.95;7.43;;;;;;;;;;4213482;28;20065;-63
2022/08/10 10:40:13;;;;;;;12.18;7.63;;;;;;;;;;4213107;28;20511;-64
2022/08/10 10:42:29;;;;;;;12.57;7.60;;;;;;;;;;4213710;28;20024;-63
2022/08/10 10:44:30;;;;;;;14.93;7.60;;;;;;;;;;4208015;28;20036;-63
2022/08/10 10:46:49;;;;;;;13.75;7.75;;;;;;;;;;4213469;28;20105;-63
2022/08/10 10:48:53;;;;;;;13.73;7.22;;;;;;;;;;4214287;28;20065;-63
2022/08/10 10:51:00;;;;;;;11.85;7.60;;;;;;;;;;4212564;28;20085;-63
2022/08/10 10:53:18;;;;;;;11.68;7.78;;;;;;;;;;4213409;28;20089;-63
2022/08/10 10:55:24;;;;;;;14.82;8.27;;;;;;;;;;4213646;28;20062;-63
2022/08/10 10:57:28;;;;;;;12.27;6.95;;;;;;;;;;4213540;28;20036;-64
2022/08/10 10:59:40;;;;;;;14.20;7.85;;;;;;;;;;4213412;28;20040;-64
2022/08/10 11:01:44;;;;;;;14.15;7.35;;;;;;;;;;4213570;28;20040;-63
2022/08/10 11:03:45;;;;;;;12.82;6.68;;;;;;;;;;4213819;28;20032;-63
2022/08/10 11:05:52;;;;;;;15.95;7.60;;;;;;;;;;4213523;28;20036;-63
2022/08/10 11:07:56;;;;;;;11.77;7.20;;;;;;;;;;4213660;28;20093;-63
2022/08/10 11:10:01;;;;;;;11.07;6.95;;;;;;;;;;4213391;28;20075;-63
2022/08/10 11:12:31;;;;;;;13.57;7.47;;;;;;;;;;4213646;28;20062;-63
2022/08/10 11:14:34;;;;;;;10.20;6.80;;;;;;;;;;4213686;28;20352;-63
2022/08/10 11:16:42;;;;;;;13.82;7.93;;;;;;;;;;4213481;28;20082;-64
2022/08/10 11:18:57;;;;;;;12.20;7.10;;;;;;;;;;4213318;28;20425;-63
2022/08/10 11:21:01;;;;;;;12.43;6.95;;;;;;;;;;4211859;28;20085;-63
2022/08/10 11:23:14;;;;;;;12.27;7.63;;;;;;;;;;4212992;28;20349;-63
2022/08/10 11:25:21;;;;;;;12.80;7.07;;;;;;;;;;4213144;28;20086;-63
2022/08/10 11:27:24;;;;;;;13.10;7.22;;;;;;;;;;4212649;28;20074;-64
2022/08/10 11:29:35;;;;;;;10.60;7.22;;;;;;;;;;4212830;28;20032;-64
2022/08/10 11:31:43;;;;;;;11.13;6.45;;;;;;;;;;4213052;28;20036;-64
2022/08/10 11:33:50;;;;;;;12.13;7.22;;;;;;;;;;4213122;28;20093;-64
2022/08/10 11:35:55;;;;;;;11.05;6.50;;;;;;;;;;4212771;28;20476;-64
2022/08/10 11:38:05;;;;;;;11.43;6.95;;;;;;;;;;4212919;28;20040;-64
2022/08/10 11:40:20;;;;;;;12.23;7.13;;;;;;;;;;4212565;28;20036;-64
2022/08/10 11:42:33;;;;;;;15.57;6.95;;;;;;;;;;4202461;28;20093;-64
2022/08/10 11:44:42;;;;;;;15.02;6.57;;;;;;;;;;4199115;28;20044;-64
2022/08/10 11:47:09;;;;;;;13.20;7.32;;;;;;;;;;4205136;28;20040;-64
2022/08/10 11:49:16;;;;;;;10.98;6.20;;;;;;;;;;4213899;28;20097;-64
2022/08/10 11:51:34;;;;;;;9.23;6.20;;;;;;;;;;4215854;28;20024;-64
2022/08/10 11:53:42;;;;;;;14.90;6.93;;;;;;;;;;4216043;28;20040;-64
2022/08/10 11:55:51;;;;;;;14.25;7.38;;;;;;;;;;4216045;28;20535;-64
2022/08/10 11:57:57;;;;;;;12.05;6.88;;;;;;;;;;4216557;28;20069;-64
2022/08/10 11:59:58;;;;;;;11.85;6.75;;;;;;;;;;4215642;28;20032;-63
2022/08/10 12:01:59;;;;;;;13.98;6.32;;;;;;;;;;4215880;28;20039;-64
2022/08/10 12:04:06;;;;;;;10.30;6.50;;;;;;;;;;4214869;28;20032;-63
2022/08/10 12:06:12;;;;;;;11.52;6.63;;;;;;;;;;4215501;28;20036;-63
2022/08/10 12:08:15;;;;;;;13.50;6.35;;;;;;;;;;4215664;28;20036;-63
2022/08/10 12:10:18;;;;;;;9.05;6.38;;;;;;;;;;4215432;28;20044;-63
2022/08/10 12:12:22;;;;;;;12.77;6.78;;;;;;;;;;4215660;28;20081;-63
2022/08/10 12:14:28;;;;;;;9.30;6.70;;;;;;;;;;4215739;28;20132;-63
2022/08/10 12:16:30;;;;;;;8.88;6.68;;;;;;;;;;4215492;28;20028;-64